Terminal Aerodrome Forecast
Issued by NWS

Home | Current Version | Previous Version | Text Only | Print | Product List | Glossary On
Versions: 1 2 3 4 5 6 7 8 9 10 11 12 13 14 15 16 17 18 19
000
FTUS41 KPBZ 011700
TAFBVI
TAF
KBVI 011738Z 0118/0218 14005KT 2SM -SN BR OVC015
      TEMPO 0118/0119 1SM -SN BR OVC008
     FM012100 14005KT 4SM -SN BR OVC025
     FM020300 13006KT 2SM -RA BR OVC015
     FM020600 12007KT 1SM -RA BR OVC008
     FM021300 26008KT 4SM -SHRASN OVC010
     FM021600 30012G22KT 2SM -SHSN BR OVC015=

USA.gov is the U.S. government's official web portal to all federal, state and local government web resources and services.